Time;durP1;ratioP1;P1;durP2;ratioP2;P2;SDS_P1;SDS_P2;PMS_P1;PMS_P2;Temp;Humidity;BMP_temperature;BMP_pressure;BME280_temperature;BME280_humidity;BME280_pressure;Samples;Min_cycle;Max_cycle;Signal;HPM_P1;HPM_P2
2022/01/11 00:00:29;;;;;;;17.87;10.63;;;3.60;99.90;;;;;;5075246;28;20442;-89
2022/01/11 00:02:55;;;;;;;16.20;9.90;;;3.60;99.90;;;;;;5076279;28;20523;-87
2022/01/11 00:05:26;;;;;;;18.13;11.27;;;3.60;99.90;;;;;;5075485;28;20415;-89
2022/01/11 00:07:53;;;;;;;17.33;8.30;;;3.60;99.90;;;;;;5074781;28;20485;-88
2022/01/11 00:10:29;;;;;;;16.07;9.33;;;3.60;99.90;;;;;;5075231;28;20442;-87
2022/01/11 00:12:56;;;;;;;16.73;11.23;;;3.60;99.90;;;;;;5074950;28;21010;-85
2022/01/11 00:15:22;;;;;;;13.67;9.57;;;3.50;99.90;;;;;;5078579;28;20426;-85
2022/01/11 00:17:53;;;;;;;16.50;10.33;;;3.50;99.90;;;;;;5079349;28;20411;-88
2022/01/11 00:20:20;;;;;;;18.67;11.33;;;3.50;99.90;;;;;;5079836;28;20161;-89
2022/01/11 00:25:32;;;;;;;19.33;8.77;;;3.50;99.90;;;;;;5076663;28;20433;-88
2022/01/11 00:27:59;;;;;;;16.70;10.10;;;3.50;99.90;;;;;;5091325;28;20790;-87
2022/01/11 00:30:31;;;;;;;15.13;9.77;;;3.40;99.90;;;;;;5075326;28;20498;-87
2022/01/11 00:32:59;;;;;;;15.57;10.10;;;3.40;99.90;;;;;;5075883;28;20793;-89
2022/01/11 00:35:28;;;;;;;17.33;9.50;;;3.40;99.90;;;;;;5075630;28;20508;-90
2022/01/11 00:37:55;;;;;;;13.30;7.30;;;3.40;99.90;;;;;;5076592;28;20415;-89
2022/01/11 00:40:21;;;;;;;17.50;10.30;;;3.40;99.90;;;;;;5075032;28;20411;-87
2022/01/11 00:42:47;;;;;;;16.83;9.83;;;3.40;99.90;;;;;;5074748;28;20463;-86
2022/01/11 00:45:13;;;;;;;13.70;10.30;;;3.50;99.90;;;;;;5073765;28;20445;-89
2022/01/11 00:47:40;;;;;;;14.47;10.07;;;3.40;99.90;;;;;;5074151;28;20489;-90
2022/01/11 00:50:07;;;;;;;16.23;10.03;;;3.40;99.90;;;;;;5076120;28;20419;-90
2022/01/11 00:52:33;;;;;;;14.90;9.00;;;3.40;99.90;;;;;;5075049;28;20438;-86
2022/01/11 00:54:59;;;;;;;14.30;10.53;;;3.50;99.90;;;;;;5091338;28;20438;-87
2022/01/11 00:57:25;;;;;;;13.00;9.30;;;3.40;99.90;;;;;;5075155;28;20473;-89
2022/01/11 00:59:50;;;;;;;20.23;10.77;;;3.40;99.90;;;;;;5076094;28;20305;-92
2022/01/11 01:02:16;;;;;;;18.97;9.93;;;3.40;99.90;;;;;;5074597;28;20222;-91
2022/01/11 01:04:42;;;;;;;22.27;11.20;;;3.40;99.90;;;;;;5091570;28;20219;-88
2022/01/11 01:07:07;;;;;;;17.37;10.57;;;3.40;99.90;;;;;;5075037;28;20270;-87
2022/01/11 01:09:51;;;;;;;19.53;10.90;;;3.40;99.90;;;;;;5073225;28;20200;-87
2022/01/11 01:12:17;;;;;;;17.53;9.53;;;3.40;99.90;;;;;;5075609;28;20170;-90
2022/01/11 01:14:42;;;;;;;16.33;10.50;;;3.40;99.90;;;;;;5076421;28;20450;-90
2022/01/11 01:17:08;;;;;;;13.73;9.37;;;3.30;99.90;;;;;;5074930;28;20556;-90
2022/01/11 01:19:34;;;;;;;16.13;9.37;;;3.30;99.90;;;;;;5074233;28;20179;-87
2022/01/11 01:21:59;;;;;;;15.43;8.77;;;3.30;99.90;;;;;;5075388;28;20234;-90
2022/01/11 01:24:25;;;;;;;20.37;10.00;;;3.40;99.90;;;;;;5076600;28;20257;-91
2022/01/11 01:26:50;;;;;;;18.10;11.10;;;3.30;99.90;;;;;;5076956;28;20200;-90
2022/01/11 01:29:16;;;;;;;16.63;11.33;;;3.30;99.90;;;;;;5075392;28;20591;-91
2022/01/11 01:31:41;;;;;;;18.40;11.87;;;3.30;99.90;;;;;;5075084;28;20180;-88
2022/01/11 01:34:07;;;;;;;22.87;10.67;;;3.30;99.90;;;;;;5073580;28;20221;-89
2022/01/11 01:36:33;;;;;;;17.10;10.63;;;3.30;99.90;;;;;;5073585;28;20652;-87
2022/01/11 01:38:59;;;;;;;19.50;11.00;;;3.20;99.90;;;;;;5074771;28;20177;-90
2022/01/11 01:41:25;;;;;;;24.23;11.33;;;3.20;99.90;;;;;;5076214;28;20204;-91
2022/01/11 01:43:54;;;;;;;20.20;12.30;;;3.20;99.90;;;;;;5074118;28;20188;-88
2022/01/11 01:46:23;;;;;;;22.80;11.13;;;3.20;99.90;;;;;;5075178;28;20472;-89
2022/01/11 01:48:50;;;;;;;19.53;11.23;;;3.20;99.90;;;;;;5074671;28;20435;-89
2022/01/11 01:51:16;;;;;;;22.60;10.07;;;3.20;99.90;;;;;;5074901;28;20430;-89
2022/01/11 01:53:45;;;;;;;22.13;11.67;;;3.20;99.90;;;;;;5073783;28;20505;-85
2022/01/11 01:56:12;;;;;;;21.23;11.80;;;3.20;99.90;;;;;;5074662;28;21077;-88
2022/01/11 01:58:38;;;;;;;19.30;10.80;;;3.20;99.90;;;;;;5072789;28;20525;-86
2022/01/11 02:01:05;;;;;;;19.93;11.37;;;3.20;99.90;;;;;;5074524;28;20422;-88
2022/01/11 02:03:40;;;;;;;19.23;10.90;;;3.20;99.90;;;;;;5074255;28;20428;-88
2022/01/11 02:06:12;;;;;;;17.50;11.17;;;3.20;99.90;;;;;;5075004;28;20417;-89
2022/01/11 02:08:38;;;;;;;20.00;11.67;;;3.20;99.90;;;;;;5073482;28;20429;-88
2022/01/11 02:11:05;;;;;;;19.70;11.10;;;3.20;99.90;;;;;;5074249;28;20428;-85
2022/01/11 02:13:31;;;;;;;19.03;12.03;;;3.20;99.90;;;;;;5072288;28;20455;-87
2022/01/11 02:15:57;;;;;;;23.13;12.20;;;3.20;99.90;;;;;;5074571;28;20464;-89
2022/01/11 02:18:26;;;;;;;22.67;11.70;;;3.20;99.90;;;;;;5074442;28;20230;-85
2022/01/11 02:20:58;;;;;;;23.30;12.80;;;3.20;99.90;;;;;;5074584;28;20411;-87
2022/01/11 02:23:25;;;;;;;20.77;12.67;;;3.20;99.90;;;;;;5073007;28;20499;-88
2022/01/11 02:25:51;;;;;;;22.83;12.20;;;3.20;99.90;;;;;;5074104;28;20437;-86
2022/01/11 02:28:19;;;;;;;22.53;10.20;;;3.20;99.90;;;;;;5071780;28;20431;-86
2022/01/11 02:30:46;;;;;;;29.77;12.50;;;3.20;99.90;;;;;;5071901;28;20430;-87
2022/01/11 02:33:32;;;;;;;20.63;12.13;;;3.20;99.90;;;;;;5072934;28;20420;-86
2022/01/11 02:36:03;;;;;;;19.50;11.53;;;3.20;99.90;;;;;;5073910;28;20400;-85
2022/01/11 02:38:29;;;;;;;22.33;13.77;;;3.20;99.90;;;;;;5074115;28;20423;-88
2022/01/11 02:40:55;;;;;;;21.87;10.57;;;3.20;99.90;;;;;;5073827;28;20431;-87
2022/01/11 02:43:21;;;;;;;22.63;13.40;;;3.20;99.90;;;;;;5073719;28;20474;-89
2022/01/11 02:45:47;;;;;;;25.77;13.83;;;3.20;99.90;;;;;;5072560;28;20789;-89
2022/01/11 02:48:12;;;;;;;20.63;11.70;;;3.30;99.90;;;;;;5073473;28;20896;-88
2022/01/11 02:50:38;;;;;;;21.57;12.60;;;3.30;99.90;;;;;;5072854;28;20567;-88
2022/01/11 02:53:03;;;;;;;21.40;10.30;;;3.30;99.90;;;;;;5072833;28;20182;-87
2022/01/11 02:55:29;;;;;;;20.77;12.50;;;3.30;99.90;;;;;;5071212;28;20169;-86
2022/01/11 02:57:55;;;;;;;22.53;11.47;;;3.30;99.90;;;;;;5072869;28;20251;-89
2022/01/11 03:00:32;;;;;;;19.03;12.73;;;3.30;99.90;;;;;;5073586;28;20204;-88
2022/01/11 03:03:08;;;;;;;18.57;10.10;;;3.30;99.90;;;;;;5073484;28;20467;-89
2022/01/11 03:05:34;;;;;;;23.73;13.20;;;3.30;99.90;;;;;;5072124;28;21179;-89
2022/01/11 03:07:59;;;;;;;18.17;11.63;;;3.30;99.90;;;;;;5073707;28;20415;-87
2022/01/11 03:10:32;;;;;;;25.60;13.03;;;3.30;99.90;;;;;;5073047;28;20173;-87
2022/01/11 03:13:02;;;;;;;17.60;12.37;;;3.20;99.90;;;;;;5071393;28;20265;-87
2022/01/11 03:15:27;;;;;;;17.50;11.37;;;3.20;99.90;;;;;;5073205;28;20786;-91
2022/01/11 03:17:53;;;;;;;21.63;10.93;;;3.20;99.90;;;;;;5071594;28;20426;-89
2022/01/11 03:20:18;;;;;;;22.83;12.17;;;3.20;99.90;;;;;;5073346;28;20172;-87
2022/01/11 03:22:44;;;;;;;20.90;11.30;;;3.20;99.90;;;;;;5072911;28;20590;-90
2022/01/11 03:25:10;;;;;;;22.43;13.00;;;3.30;99.90;;;;;;5073175;28;20226;-89
2022/01/11 03:27:36;;;;;;;27.70;12.67;;;3.20;99.90;;;;;;5072403;28;20185;-86
2022/01/11 03:30:02;;;;;;;19.70;12.50;;;3.20;99.90;;;;;;5073111;28;20416;-88
2022/01/11 03:32:28;;;;;;;21.73;11.83;;;3.20;99.90;;;;;;5072902;28;20176;-91
2022/01/11 03:34:53;;;;;;;23.47;12.43;;;3.20;99.90;;;;;;5072418;28;20456;-89
2022/01/11 03:37:20;;;;;;;19.43;11.80;;;3.20;99.90;;;;;;5072307;28;20669;-87
2022/01/11 03:39:47;;;;;;;20.00;12.70;;;3.30;99.90;;;;;;5071266;28;20649;-87
2022/01/11 03:42:13;;;;;;;27.97;12.27;;;3.30;99.90;;;;;;5072765;28;20554;-92
2022/01/11 03:44:38;;;;;;;18.90;9.87;;;3.30;99.90;;;;;;5072342;28;20480;-89
2022/01/11 03:47:04;;;;;;;26.27;12.07;;;3.30;99.90;;;;;;5073390;28;21048;-88
2022/01/11 03:49:30;;;;;;;20.20;13.07;;;3.30;99.90;;;;;;5072153;28;20181;-90
2022/01/11 03:51:56;;;;;;;23.00;10.73;;;3.30;99.90;;;;;;5071969;28;20773;-88
2022/01/11 03:54:42;;;;;;;24.60;12.60;;;3.30;99.90;;;;;;5073360;28;20411;-89
2022/01/11 03:57:08;;;;;;;23.03;11.30;;;3.30;99.90;;;;;;5073877;28;20165;-89
2022/01/11 03:59:34;;;;;;;21.50;11.53;;;3.30;99.90;;;;;;5073238;28;20405;-87
2022/01/11 04:01:59;;;;;;;18.43;10.33;;;3.40;99.90;;;;;;5072574;28;20470;-84
2022/01/11 04:04:26;;;;;;;20.47;11.63;;;3.40;99.90;;;;;;5072067;28;20185;-87
2022/01/11 04:06:52;;;;;;;23.47;12.80;;;3.40;99.90;;;;;;5073384;28;20173;-89
2022/01/11 04:09:17;;;;;;;26.27;13.67;;;3.30;99.90;;;;;;5073424;28;20778;-87
2022/01/11 04:11:43;;;;;;;26.17;12.13;;;3.30;99.90;;;;;;5073359;28;20416;-87
2022/01/11 04:14:08;;;;;;;24.97;14.60;;;3.30;99.90;;;;;;5073412;28;20176;-87
2022/01/11 04:16:34;;;;;;;19.57;12.47;;;3.40;99.90;;;;;;5071856;28;20178;-88
2022/01/11 04:18:59;;;;;;;20.70;12.60;;;3.40;99.90;;;;;;5071316;28;20656;-86
2022/01/11 04:21:25;;;;;;;24.83;14.53;;;3.40;99.90;;;;;;5073639;28;20209;-86
2022/01/11 04:23:51;;;;;;;21.17;11.90;;;3.40;99.90;;;;;;5075219;28;20232;-87
2022/01/11 04:26:17;;;;;;;25.50;14.00;;;3.40;99.90;;;;;;5075297;28;20176;-87
2022/01/11 04:28:42;;;;;;;25.07;12.03;;;3.40;99.90;;;;;;5076364;28;20415;-87
2022/01/11 04:31:08;;;;;;;21.70;13.43;;;3.40;99.90;;;;;;5075122;28;20579;-86
2022/01/11 04:33:33;;;;;;;21.93;12.20;;;3.40;99.90;;;;;;5075026;28;20238;-86
2022/01/11 04:36:01;;;;;;;20.87;11.30;;;3.40;99.90;;;;;;5076506;28;20173;-88
2022/01/11 04:38:29;;;;;;;23.47;13.07;;;3.40;99.90;;;;;;5075217;28;20173;-87
2022/01/11 04:40:56;;;;;;;26.10;13.53;;;3.40;99.90;;;;;;5075209;28;20494;-87
2022/01/11 04:43:22;;;;;;;22.30;12.67;;;3.40;99.90;;;;;;5074785;28;20911;-87
2022/01/11 04:45:48;;;;;;;29.10;12.87;;;3.40;99.90;;;;;;5075871;28;20498;-86
2022/01/11 04:48:14;;;;;;;24.53;13.40;;;3.40;99.90;;;;;;5074022;28;20168;-84
2022/01/11 04:50:40;;;;;;;27.70;15.40;;;3.50;99.90;;;;;;5075675;28;20177;-85
2022/01/11 04:53:06;;;;;;;31.07;13.87;;;3.50;99.90;;;;;;5074398;28;20472;-85
2022/01/11 04:55:32;;;;;;;32.03;15.90;;;3.50;99.90;;;;;;5074289;28;20218;-86
2022/01/11 04:57:58;;;;;;;25.93;15.10;;;3.50;99.90;;;;;;5074251;28;20236;-85
2022/01/11 05:00:24;;;;;;;31.40;15.53;;;3.50;99.90;;;;;;5074303;28;20435;-86
2022/01/11 05:02:50;;;;;;;29.67;12.77;;;3.50;99.90;;;;;;5073954;28;20478;-86
2022/01/11 05:05:16;;;;;;;33.57;15.20;;;3.50;99.90;;;;;;5074156;28;20419;-85
2022/01/11 05:07:46;;;;;;;30.60;14.93;;;3.50;99.90;;;;;;5075414;28;20216;-85
2022/01/11 05:10:12;;;;;;;32.87;16.13;;;3.50;99.90;;;;;;5074296;28;20177;-85
2022/01/11 05:12:38;;;;;;;28.60;15.37;;;3.50;99.90;;;;;;5075316;28;20473;-87
2022/01/11 05:15:07;;;;;;;26.47;14.77;;;3.50;99.90;;;;;;5075483;28;20908;-87
2022/01/11 05:17:32;;;;;;;28.07;15.07;;;3.50;99.90;;;;;;5074916;28;20506;-87
2022/01/11 05:19:58;;;;;;;31.73;14.60;;;3.50;99.90;;;;;;5074261;28;20458;-87
2022/01/11 05:22:23;;;;;;;29.07;13.80;;;3.50;99.90;;;;;;5075275;28;20226;-87
2022/01/11 05:24:49;;;;;;;27.87;15.03;;;3.50;99.90;;;;;;5075203;28;20181;-87
2022/01/11 05:27:14;;;;;;;25.00;14.43;;;3.50;99.90;;;;;;5076773;28;20248;-86
2022/01/11 05:29:40;;;;;;;29.80;15.17;;;3.50;99.90;;;;;;5076884;28;20630;-88
2022/01/11 05:32:06;;;;;;;27.43;14.93;;;3.50;99.90;;;;;;5074703;28;20169;-87
2022/01/11 05:34:31;;;;;;;29.43;15.57;;;3.50;99.90;;;;;;5074940;28;20161;-86
2022/01/11 05:36:57;;;;;;;29.67;13.80;;;3.50;99.90;;;;;;5074831;28;20416;-86
2022/01/11 05:39:23;;;;;;;34.20;17.07;;;3.50;99.90;;;;;;5074964;28;20180;-86
2022/01/11 05:41:48;;;;;;;27.90;16.73;;;3.50;99.90;;;;;;5073557;28;20193;-87
2022/01/11 05:44:14;;;;;;;33.50;15.20;;;3.50;99.90;;;;;;5074700;28;20181;-87
2022/01/11 05:46:39;;;;;;;39.93;17.53;;;3.50;99.90;;;;;;5073077;28;20193;-87
2022/01/11 05:49:05;;;;;;;26.93;15.67;;;3.50;99.90;;;;;;5074581;28;20655;-86
2022/01/11 05:51:30;;;;;;;29.87;15.33;;;3.50;99.90;;;;;;5073422;28;20177;-87
2022/01/11 05:53:56;;;;;;;31.40;15.70;;;3.40;99.90;;;;;;5074999;28;20244;-87
2022/01/11 05:56:22;;;;;;;30.17;15.73;;;3.50;99.90;;;;;;5073541;28;20181;-87
2022/01/11 05:58:48;;;;;;;32.67;15.63;;;3.50;99.90;;;;;;5074659;28;20921;-88
2022/01/11 06:01:14;;;;;;;30.93;15.40;;;3.50;99.90;;;;;;5073022;28;20528;-88
2022/01/11 06:03:40;;;;;;;39.90;18.20;;;3.40;99.90;;;;;;5073411;28;20546;-87
2022/01/11 06:06:06;;;;;;;27.60;16.17;;;3.40;99.90;;;;;;5074319;28;20407;-87
2022/01/11 06:08:31;;;;;;;27.73;14.33;;;3.40;99.90;;;;;;5074353;28;20174;-87
2022/01/11 06:10:57;;;;;;;28.27;15.80;;;3.40;99.90;;;;;;5073150;28;20181;-87
2022/01/11 06:13:24;;;;;;;32.33;15.80;;;3.40;99.90;;;;;;5074571;28;20176;-86
2022/01/11 06:15:50;;;;;;;33.63;17.17;;;3.30;99.90;;;;;;5074447;28;20719;-86
2022/01/11 06:18:16;;;;;;;27.23;13.63;;;3.30;99.90;;;;;;5073955;28;20404;-86
2022/01/11 06:20:42;;;;;;;27.03;14.23;;;3.30;99.90;;;;;;5074038;28;20420;-86
2022/01/11 06:23:07;;;;;;;36.30;17.50;;;3.30;99.90;;;;;;5072360;28;20228;-87
2022/01/11 06:25:33;;;;;;;29.17;14.97;;;3.30;99.90;;;;;;5073977;28;20188;-86
2022/01/11 06:28:02;;;;;;;32.07;15.90;;;3.30;99.90;;;;;;5072603;28;20224;-87
2022/01/11 06:30:28;;;;;;;37.90;15.60;;;3.30;99.90;;;;;;5072548;28;20779;-85
2022/01/11 06:32:55;;;;;;;37.03;17.60;;;3.30;99.90;;;;;;5072177;28;20410;-85
2022/01/11 06:35:22;;;;;;;27.73;15.93;;;3.30;99.90;;;;;;5073785;28;20196;-85
2022/01/11 06:37:48;;;;;;;29.83;13.83;;;3.20;99.90;;;;;;5089322;28;20514;-87
2022/01/11 06:40:16;;;;;;;28.63;15.70;;;3.20;99.90;;;;;;5072505;28;20487;-86
2022/01/11 06:42:42;;;;;;;31.03;15.30;;;3.20;99.90;;;;;;5072289;28;20481;-85
2022/01/11 06:45:09;;;;;;;30.40;14.27;;;3.20;99.90;;;;;;5071914;28;20412;-86
2022/01/11 06:47:34;;;;;;;33.87;15.30;;;3.10;99.90;;;;;;5071954;28;20666;-87
2022/01/11 06:50:00;;;;;;;37.93;14.90;;;3.20;99.90;;;;;;5072031;28;20447;-86
2022/01/11 06:52:25;;;;;;;29.83;13.53;;;3.10;99.90;;;;;;5073708;28;20175;-86
2022/01/11 06:54:51;;;;;;;33.90;14.10;;;3.10;99.90;;;;;;5072134;28;20174;-86
2022/01/11 06:57:16;;;;;;;32.17;15.67;;;3.10;99.90;;;;;;5073519;28;20176;-85
2022/01/11 06:59:42;;;;;;;35.47;16.50;;;3.00;99.90;;;;;;5073288;28;20268;-85
2022/01/11 07:02:07;;;;;;;27.73;14.07;;;3.00;99.90;;;;;;5071704;28;20244;-85
2022/01/11 07:04:34;;;;;;;29.60;13.90;;;3.00;99.90;;;;;;5073219;28;20180;-85
2022/01/11 07:06:59;;;;;;;31.03;15.50;;;3.00;99.90;;;;;;5072027;28;20177;-85
2022/01/11 07:09:25;;;;;;;29.47;14.07;;;3.10;99.90;;;;;;5073253;28;20430;-86
2022/01/11 07:11:50;;;;;;;31.07;13.97;;;3.00;99.90;;;;;;5073320;28;20197;-86
2022/01/11 07:14:16;;;;;;;27.57;14.23;;;3.00;99.90;;;;;;5072015;28;20169;-86
2022/01/11 07:16:43;;;;;;;28.20;14.60;;;3.00;99.90;;;;;;5071637;28;20174;-85
2022/01/11 07:19:09;;;;;;;27.53;13.83;;;3.00;99.90;;;;;;5073305;28;20625;-87
2022/01/11 07:21:35;;;;;;;28.77;13.40;;;2.90;99.90;;;;;;5071742;28;20447;-86
2022/01/11 07:24:01;;;;;;;29.50;14.13;;;2.90;99.90;;;;;;5071689;28;20230;-87
2022/01/11 07:26:27;;;;;;;34.13;14.60;;;2.90;99.90;;;;;;5073134;28;20176;-85
2022/01/11 07:28:52;;;;;;;30.30;15.03;;;2.90;99.90;;;;;;5071727;28;20411;-86
2022/01/11 07:31:18;;;;;;;26.40;14.00;;;2.90;99.90;;;;;;5071850;28;20256;-88
2022/01/11 07:33:43;;;;;;;22.23;12.70;;;2.90;99.90;;;;;;5072325;28;20213;-90
2022/01/11 07:36:09;;;;;;;33.53;15.63;;;2.80;99.90;;;;;;5072358;28;20528;-86
2022/01/11 07:38:34;;;;;;;29.60;13.57;;;2.80;99.90;;;;;;5074352;28;20169;-86
2022/01/11 07:41:00;;;;;;;32.33;14.50;;;2.80;99.90;;;;;;5072135;28;20168;-87
2022/01/11 07:43:25;;;;;;;27.20;13.40;;;2.70;99.90;;;;;;5071988;28;20250;-85
2022/01/11 07:45:51;;;;;;;25.83;12.70;;;2.70;99.90;;;;;;5072629;28;20195;-87
2022/01/11 07:48:17;;;;;;;28.53;11.87;;;2.70;99.90;;;;;;5072777;28;20173;-86
2022/01/11 07:50:42;;;;;;;30.20;14.40;;;2.70;99.90;;;;;;5072837;28;20169;-85
2022/01/11 07:53:08;;;;;;;27.10;14.10;;;2.70;99.90;;;;;;5071513;28;20177;-85
2022/01/11 07:55:33;;;;;;;32.73;14.53;;;2.80;99.90;;;;;;5072770;28;20570;-86
2022/01/11 07:57:59;;;;;;;30.80;14.70;;;2.90;99.90;;;;;;5076267;28;20172;-86
2022/01/11 08:00:24;;;;;;;28.20;12.67;;;2.90;99.90;;;;;;5076685;28;20177;-85
2022/01/11 08:02:50;;;;;;;28.30;13.83;;;2.90;99.90;;;;;;5076332;28;20674;-85
2022/01/11 08:05:16;;;;;;;27.20;14.07;;;3.00;99.90;;;;;;5076637;28;20175;-84
2022/01/11 08:07:42;;;;;;;22.37;11.97;;;3.10;99.90;;;;;;5076608;28;20175;-86
2022/01/11 08:10:09;;;;;;;26.33;12.97;;;3.10;99.90;;;;;;5076625;28;20404;-87
2022/01/11 08:12:34;;;;;;;26.23;12.13;;;3.10;99.90;;;;;;5076552;28;20532;-86
2022/01/11 08:15:01;;;;;;;25.73;11.30;;;3.10;99.90;;;;;;5075236;28;20416;-87
2022/01/11 08:17:28;;;;;;;30.63;14.47;;;3.10;99.90;;;;;;5076154;28;20258;-86
2022/01/11 08:19:54;;;;;;;25.20;12.37;;;3.20;99.90;;;;;;5075200;28;20417;-85
2022/01/11 08:22:19;;;;;;;22.40;12.53;;;3.10;99.90;;;;;;5076190;28;20480;-84
2022/01/11 08:24:45;;;;;;;23.30;12.07;;;3.10;99.90;;;;;;5076323;28;20638;-85
2022/01/11 08:27:11;;;;;;;27.20;12.23;;;3.20;99.90;;;;;;5076445;28;20179;-85
2022/01/11 08:29:37;;;;;;;24.27;12.43;;;3.20;99.90;;;;;;5075004;28;20177;-86
2022/01/11 08:32:03;;;;;;;20.40;12.83;;;3.20;99.90;;;;;;5076077;28;20939;-84
2022/01/11 08:34:28;;;;;;;26.00;13.90;;;3.20;99.90;;;;;;5076822;28;20646;-86
2022/01/11 08:36:55;;;;;;;21.00;12.23;;;3.30;99.90;;;;;;5075735;28;20177;-86
2022/01/11 08:39:20;;;;;;;23.03;10.63;;;3.30;99.90;;;;;;5076830;28;20175;-88
2022/01/11 08:41:46;;;;;;;22.97;11.50;;;3.40;99.90;;;;;;5080455;28;20555;-84
2022/01/11 08:44:12;;;;;;;27.17;11.13;;;3.40;99.90;;;;;;5077152;28;20188;-85
2022/01/11 08:46:40;;;;;;;26.10;11.70;;;3.50;99.90;;;;;;5076449;28;20200;-86
2022/01/11 08:49:06;;;;;;;18.63;10.67;;;3.50;99.90;;;;;;5076306;28;20180;-84
2022/01/11 08:51:34;;;;;;;23.03;11.53;;;3.50;99.90;;;;;;5075070;28;20416;-86
2022/01/11 08:54:01;;;;;;;23.13;11.67;;;3.50;99.90;;;;;;5075880;28;20173;-84
2022/01/11 08:56:26;;;;;;;25.50;10.90;;;3.50;99.90;;;;;;5075875;28;20406;-84
2022/01/11 08:58:52;;;;;;;23.13;9.23;;;3.60;99.90;;;;;;5076151;28;20530;-87
2022/01/11 09:01:18;;;;;;;21.10;10.53;;;3.60;99.90;;;;;;5075209;28;20567;-86
2022/01/11 09:03:43;;;;;;;21.87;10.63;;;3.60;99.90;;;;;;5074737;28;20169;-89
2022/01/11 09:06:09;;;;;;;26.17;12.20;;;3.60;99.90;;;;;;5074489;28;20533;-85
2022/01/11 09:08:36;;;;;;;22.37;12.43;;;3.70;99.90;;;;;;5073824;28;20416;-84
2022/01/11 09:11:04;;;;;;;22.23;11.20;;;3.80;99.90;;;;;;5090995;28;20177;-84
2022/01/11 09:13:30;;;;;;;18.00;10.20;;;3.90;99.90;;;;;;5075407;28;20429;-86
2022/01/11 09:15:55;;;;;;;21.07;12.20;;;4.10;99.90;;;;;;5075136;28;20416;-86
2022/01/11 09:18:21;;;;;;;20.10;10.80;;;4.20;99.90;;;;;;5075478;28;20211;-87
2022/01/11 09:20:47;;;;;;;21.37;11.47;;;4.20;99.90;;;;;;5074119;28;20218;-84
2022/01/11 09:23:12;;;;;;;20.77;11.00;;;4.50;99.90;;;;;;5073889;28;20286;-85
2022/01/11 09:25:38;;;;;;;20.23;10.57;;;5.50;99.90;;;;;;5074224;28;20524;-84
2022/01/11 09:28:03;;;;;;;16.80;10.33;;;5.00;99.90;;;;;;5075375;28;20533;-84
2022/01/11 09:30:29;;;;;;;17.97;10.10;;;5.20;99.90;;;;;;5075294;28;20566;-87
2022/01/11 09:32:55;;;;;;;19.27;10.07;;;4.70;99.90;;;;;;5074174;28;20176;-86
2022/01/11 09:35:21;;;;;;;16.50;9.63;;;4.90;99.90;;;;;;5075996;28;20311;-86
2022/01/11 09:37:46;;;;;;;15.70;8.20;;;5.80;99.90;;;;;;5075302;28;20209;-86
2022/01/11 09:40:13;;;;;;;21.07;7.90;;;6.80;99.90;;;;;;5073914;28;20186;-86
2022/01/11 09:42:39;;;;;;;16.63;8.23;;;6.60;99.90;;;;;;5073799;28;20605;-86
2022/01/11 09:45:07;;;;;;;14.37;8.43;;;7.60;99.90;;;;;;5075006;28;20418;-86
2022/01/11 09:47:33;;;;;;;18.57;7.73;;;7.60;99.90;;;;;;5075076;28;20461;-85
2022/01/11 09:49:58;;;;;;;13.73;8.13;;;6.80;99.90;;;;;;5073713;28;20461;-87
2022/01/11 09:52:26;;;;;;;13.90;8.33;;;6.10;99.90;;;;;;5074756;28;20176;-87
2022/01/11 09:54:53;;;;;;;17.77;9.13;;;6.50;99.90;;;;;;5073918;28;20550;-85
2022/01/11 09:57:18;;;;;;;17.57;7.70;;;6.30;99.90;;;;;;5073509;28;20949;-87
2022/01/11 09:59:44;;;;;;;16.93;8.80;;;6.70;99.90;;;;;;5074628;28;20548;-87
2022/01/11 10:02:12;;;;;;;14.13;7.20;;;6.80;99.90;;;;;;5074243;28;20258;-89
2022/01/11 10:04:37;;;;;;;12.97;6.70;;;7.00;99.90;;;;;;5073379;28;20181;-87
2022/01/11 10:07:07;;;;;;;15.80;7.60;;;7.20;99.90;;;;;;5073384;28;20426;-87
2022/01/11 10:09:50;;;;;;;13.80;6.43;;;7.30;99.90;;;;;;5074393;28;20166;-86
2022/01/11 10:12:18;;;;;;;16.27;8.20;;;7.00;99.90;;;;;;5090533;28;20438;-87
2022/01/11 10:14:55;;;;;;;15.20;7.27;;;7.00;99.90;;;;;;5073300;28;20413;-88
2022/01/11 10:17:27;;;;;;;16.90;7.20;;;6.80;99.90;;;;;;5072906;28;20420;-89
2022/01/11 10:20:25;;;;;;;16.70;7.10;;;6.40;99.90;;;;;;5073748;28;20404;-87
2022/01/11 10:22:55;;;;;;;14.97;6.93;;;6.10;99.90;;;;;;5072821;28;20482;-87
2022/01/11 10:25:20;;;;;;;17.53;8.10;;;5.80;99.90;;;;;;5074510;28;20830;-89
2022/01/11 10:27:54;;;;;;;12.83;5.70;;;5.80;99.90;;;;;;5073102;28;20421;-87
2022/01/11 10:30:23;;;;;;;17.83;7.47;;;5.60;99.90;;;;;;5089800;28;20213;-89
2022/01/11 10:32:50;;;;;;;12.03;7.07;;;5.50;99.90;;;;;;5073331;28;20409;-89
2022/01/11 10:35:25;;;;;;;13.17;6.80;;;5.60;99.90;;;;;;5074632;28;20409;-89
2022/01/11 10:37:53;;;;;;;12.43;6.37;;;5.20;99.90;;;;;;5073438;28;20929;-89
2022/01/11 10:40:27;;;;;;;13.47;6.37;;;5.50;99.90;;;;;;5073350;28;20478;-89
2022/01/11 10:42:57;;;;;;;13.90;7.20;;;5.70;99.90;;;;;;5073396;28;20475;-89
2022/01/11 10:45:35;;;;;;;14.63;7.43;;;5.50;99.90;;;;;;5072960;28;20408;-90
2022/01/11 10:48:08;;;;;;;17.77;7.13;;;5.30;99.90;;;;;;5073271;28;20427;-89
2022/01/11 10:50:38;;;;;;;17.50;7.23;;;5.20;99.90;;;;;;5073068;28;20430;-90
2022/01/11 10:53:10;;;;;;;14.57;7.83;;;5.10;99.90;;;;;;5073453;28;20427;-90
2022/01/11 10:55:35;;;;;;;21.07;7.67;;;5.00;99.90;;;;;;5074331;28;20444;-90
2022/01/11 10:58:04;;;;;;;12.87;6.83;;;5.00;99.90;;;;;;5073210;28;20415;-90
2022/01/11 11:00:34;;;;;;;14.10;7.23;;;5.10;99.90;;;;;;5072777;28;20267;-89
2022/01/11 11:03:15;;;;;;;10.63;5.50;;;5.20;99.90;;;;;;5073101;28;20457;-90
2022/01/11 11:05:45;;;;;;;14.90;6.90;;;4.90;99.90;;;;;;5073122;28;20428;-89
2022/01/11 11:08:20;;;;;;;11.03;5.90;;;4.60;99.90;;;;;;5074418;28;20782;-89
2022/01/11 11:10:49;;;;;;;12.33;5.77;;;4.50;99.90;;;;;;5073305;28;20927;-90
2022/01/11 11:13:23;;;;;;;16.67;9.40;;;4.60;99.90;;;;;;5073266;28;20770;-89
2022/01/11 11:15:51;;;;;;;12.83;7.80;;;4.70;99.90;;;;;;5073030;28;20410;-90
2022/01/11 11:18:23;;;;;;;11.10;6.00;;;4.70;99.90;;;;;;5074093;28;20427;-89
2022/01/11 11:20:49;;;;;;;15.27;6.27;;;4.70;99.90;;;;;;5089784;28;20795;-89
2022/01/11 11:23:15;;;;;;;12.37;6.77;;;4.70;99.90;;;;;;5074064;28;20476;-90
2022/01/11 11:25:41;;;;;;;15.73;6.90;;;4.70;99.90;;;;;;5074330;28;20648;-90
2022/01/11 11:28:06;;;;;;;13.60;7.03;;;4.70;99.90;;;;;;5073022;28;20172;-91
2022/01/11 11:30:33;;;;;;;11.73;6.00;;;4.70;99.90;;;;;;5072544;28;20411;-89
2022/01/11 11:32:59;;;;;;;12.23;6.20;;;4.60;99.90;;;;;;5074184;28;20169;-90
2022/01/11 11:35:25;;;;;;;11.50;6.60;;;4.80;99.90;;;;;;5072647;28;20776;-89
2022/01/11 11:38:00;;;;;;;11.83;5.97;;;5.10;99.90;;;;;;5073016;28;20433;-89
2022/01/11 11:40:27;;;;;;;12.60;6.13;;;5.80;99.90;;;;;;5073765;28;20173;-93
2022/01/11 11:42:57;;;;;;;13.37;6.73;;;5.40;99.90;;;;;;5073318;28;20475;-90
2022/01/11 11:45:25;;;;;;;11.53;5.87;;;5.30;99.90;;;;;;5072567;28;20478;-90
2022/01/11 11:47:51;;;;;;;11.60;6.00;;;5.20;99.90;;;;;;5072684;28;20428;-90
2022/01/11 11:50:22;;;;;;;14.00;7.47;;;5.30;99.90;;;;;;5072632;28;20413;-90
2022/01/11 11:52:51;;;;;;;12.70;6.60;;;5.80;99.90;;;;;;5072808;28;20410;-89
2022/01/11 11:55:28;;;;;;;11.93;5.90;;;5.90;99.90;;;;;;5073913;28;20412;-91
2022/01/11 11:58:06;;;;;;;13.40;7.33;;;6.00;99.90;;;;;;5072694;28;20419;-89
2022/01/11 12:00:41;;;;;;;11.50;6.10;;;8.10;99.90;;;;;;5072304;28;20408;-90
2022/01/11 12:03:25;;;;;;;9.30;4.20;;;8.90;99.90;;;;;;5073507;28;20510;-91
2022/01/11 12:05:52;;;;;;;11.17;5.43;;;8.20;99.90;;;;;;5073949;28;20410;-90
2022/01/11 12:08:42;;;;;;;10.50;4.87;;;8.60;99.90;;;;;;5072274;28;20525;-91
2022/01/11 12:11:18;;;;;;;11.23;4.60;;;9.20;99.90;;;;;;5072427;28;20938;-90
2022/01/11 12:13:48;;;;;;;8.90;5.00;;;8.10;99.90;;;;;;5072652;28;20407;-91
2022/01/11 12:16:25;;;;;;;9.90;5.90;;;6.40;99.90;;;;;;5071908;28;20468;-91
2022/01/11 12:18:59;;;;;;;10.70;6.53;;;6.30;99.90;;;;;;5072367;28;20414;-91
2022/01/11 12:21:27;;;;;;;10.40;4.70;;;5.70;99.90;;;;;;5073493;28;20414;-90
2022/01/11 12:23:55;;;;;;;9.33;5.60;;;5.20;99.90;;;;;;5072043;28;20481;-90
2022/01/11 12:26:26;;;;;;;10.23;5.83;;;5.30;99.90;;;;;;5073495;28;20404;-91
2022/01/11 12:29:10;;;;;;;15.20;6.17;;;5.30;99.90;;;;;;5072419;28;20414;-88
2022/01/11 12:31:38;;;;;;;12.03;5.40;;;4.90;99.90;;;;;;5071955;28;20455;-90
2022/01/11 12:34:08;;;;;;;13.27;4.83;;;4.80;99.90;;;;;;5073563;28;20428;-90
2022/01/11 12:36:55;;;;;;;8.83;4.90;;;4.80;99.90;;;;;;5072336;28;20427;-89
2022/01/11 12:39:26;;;;;;;12.23;4.57;;;4.90;99.90;;;;;;5072253;28;20419;-89
2022/01/11 12:41:52;;;;;;;10.73;5.27;;;4.90;99.90;;;;;;5073317;28;20470;-91
2022/01/11 12:47:13;;;;;;;15.87;6.10;;;5.30;99.90;;;;;;5065508;28;20407;-91